createdAt,value
2018-06-05T17:38:34.091Z,43.00
2018-06-05T17:41:02.553Z,46.60
2018-06-05T17:43:30.961Z,46.85
2018-06-05T17:45:59.411Z,46.15
2018-06-05T17:48:27.821Z,44.57
2018-06-05T17:50:56.241Z,43.60
2018-06-05T17:53:25.126Z,43.20
2018-06-05T17:55:53.562Z,48.65
2018-06-05T17:58:21.974Z,45.78
2018-06-05T18:00:50.490Z,47.40
2018-06-05T18:03:18.598Z,44.50
2018-06-05T18:05:47.031Z,44.35
2018-06-05T18:08:15.176Z,45.25
2018-06-05T18:10:43.596Z,42.05
2018-06-05T18:13:11.697Z,44.55
2018-06-05T18:15:40.132Z,42.50
2018-06-05T18:18:08.575Z,48.83
2018-06-05T18:20:37.007Z,47.13
2018-06-05T18:23:05.532Z,43.10
2018-06-05T18:25:36.861Z,44.38
2018-06-05T18:28:05.294Z,45.03
2018-06-05T18:30:33.711Z,43.15
2018-06-05T18:33:02.122Z,44.80
2018-06-05T18:35:30.606Z,44.30
2018-06-05T18:37:59.043Z,45.25
2018-06-05T18:40:27.644Z,105.72
2018-06-05T18:42:56.051Z,232.10
2018-06-05T18:45:24.494Z,153.32
2018-06-05T18:47:52.911Z,62.05
2018-06-05T18:50:21.327Z,51.30
2018-06-05T18:52:49.797Z,41.77
2018-06-05T18:55:18.267Z,44.00
2018-06-05T18:57:46.683Z,44.90
2018-06-05T19:00:15.071Z,45.43
2018-06-05T19:02:43.472Z,44.25
2018-06-05T19:05:11.892Z,47.62
2018-06-05T19:07:40.035Z,46.40
2018-06-05T19:10:08.438Z,42.23
2018-06-05T19:12:36.842Z,48.87
2018-06-05T19:15:05.290Z,44.80
2018-06-05T19:17:33.774Z,59.93
2018-06-05T19:20:02.155Z,48.03
2018-06-05T19:22:30.574Z,45.35
2018-06-05T19:24:59.027Z,45.88
2018-06-05T19:27:27.499Z,45.52
2018-06-05T19:29:56.024Z,42.55
2018-06-05T19:32:24.422Z,43.75
2018-06-05T19:34:52.827Z,43.90
2018-06-05T19:37:21.238Z,44.42
2018-06-05T19:39:49.681Z,49.00
2018-06-05T19:42:18.111Z,51.48
2018-06-05T19:44:46.211Z,47.50
2018-06-05T19:47:14.719Z,46.02
2018-06-05T19:49:43.137Z,46.90
2018-06-05T19:52:11.242Z,49.17
2018-06-05T19:54:39.673Z,45.80
2018-06-05T19:57:08.086Z,45.43
2018-06-05T19:59:36.530Z,52.23
2018-06-05T20:02:04.999Z,43.87
2018-06-05T20:04:33.421Z,50.63
2018-06-05T20:07:01.851Z,49.70
2018-06-05T20:09:30.281Z,47.95
2018-06-05T20:11:58.751Z,48.00
2018-06-05T20:14:27.134Z,45.85
2018-06-05T20:16:55.548Z,48.68
2018-06-05T20:19:23.942Z,47.73
2018-06-05T20:21:52.374Z,46.27
2018-06-05T20:24:20.786Z,50.05
2018-06-05T20:26:49.390Z,52.73
2018-06-05T20:29:17.837Z,51.80
2018-06-05T20:31:46.236Z,50.33
2018-06-05T20:34:14.675Z,48.33
2018-06-05T20:36:43.083Z,46.77
2018-06-05T20:39:11.612Z,49.33
2018-06-05T20:41:40.039Z,49.80
2018-06-05T20:44:08.488Z,45.43
2018-06-05T20:46:36.591Z,49.90
2018-06-05T20:49:05.283Z,46.53
2018-06-05T20:51:33.682Z,48.23
2018-06-05T20:54:02.282Z,50.80
2018-06-05T20:56:30.783Z,56.53
2018-06-05T20:58:58.923Z,49.18
2018-06-05T21:01:27.327Z,50.30
2018-06-05T21:03:55.733Z,53.30
2018-06-05T21:06:24.206Z,49.93
2018-06-05T21:08:52.619Z,52.15
2018-06-05T21:11:21.032Z,51.53
2018-06-05T21:13:49.418Z,50.40
2018-06-05T21:16:17.829Z,50.10
2018-06-05T21:18:46.242Z,54.50
2018-06-05T21:21:14.700Z,50.17
2018-06-05T21:23:43.071Z,49.47
2018-06-05T21:26:11.498Z,49.55
2018-06-05T21:28:39.926Z,51.28
2018-06-05T21:31:08.346Z,56.02
2018-06-05T21:33:36.777Z,56.80
2018-06-05T21:36:05.272Z,56.75
2018-06-05T21:38:33.678Z,51.73
2018-06-05T21:41:02.076Z,53.63
2018-06-05T21:43:30.498Z,53.40
2018-06-05T21:45:58.891Z,50.77
2018-06-05T21:48:27.299Z,52.35
2018-06-05T21:50:55.706Z,50.12
2018-06-05T21:53:24.454Z,54.77
2018-06-05T21:55:52.896Z,51.58
2018-06-05T21:58:21.304Z,52.23
2018-06-05T22:01:00.837Z,53.95
2018-06-05T22:03:30.322Z,51.35
2018-06-05T22:05:58.742Z,51.02
2018-06-05T22:08:27.132Z,50.05
2018-06-05T22:10:55.529Z,52.17
2018-06-05T22:13:23.911Z,50.23
2018-06-05T22:15:52.343Z,50.47
2018-06-05T22:18:20.754Z,51.03
2018-06-05T22:20:49.150Z,48.35
2018-06-05T22:23:17.563Z,51.40
2018-06-05T22:25:45.986Z,48.65
2018-06-05T22:28:14.437Z,48.50
2018-06-05T22:30:42.830Z,48.28
2018-06-05T22:33:11.239Z,51.65
2018-06-05T22:35:39.639Z,50.20
2018-06-05T22:38:07.785Z,56.27
2018-06-05T22:40:36.204Z,55.87
2018-06-05T22:43:04.305Z,55.10
2018-06-05T22:45:32.709Z,59.33
2018-06-05T22:48:01.143Z,53.43
2018-06-05T22:50:29.539Z,55.57
2018-06-05T22:52:57.966Z,56.33
2018-06-05T22:55:26.397Z,54.98
2018-06-05T22:57:54.822Z,57.20
2018-06-05T23:00:34.287Z,56.68
2018-06-05T23:03:02.695Z,54.40
2018-06-05T23:05:31.178Z,52.80
2018-06-05T23:07:59.586Z,58.23
2018-06-05T23:10:28.031Z,53.53
2018-06-05T23:12:56.443Z,50.40
2018-06-05T23:15:24.896Z,54.23
2018-06-05T23:17:53.301Z,49.45
2018-06-05T23:20:21.733Z,48.25
2018-06-05T23:22:50.134Z,55.67
2018-06-05T23:25:18.538Z,52.43
2018-06-05T23:27:46.993Z,55.37
2018-06-05T23:30:15.421Z,53.60
2018-06-05T23:32:43.870Z,53.75
2018-06-05T23:35:12.298Z,53.87
2018-06-05T23:37:40.721Z,55.28
2018-06-05T23:40:09.112Z,52.62
2018-06-05T23:42:37.656Z,57.67
2018-06-05T23:45:06.098Z,60.45
2018-06-05T23:47:34.534Z,54.77
2018-06-05T23:50:02.939Z,54.85
2018-06-05T23:52:31.336Z,56.45
2018-06-05T23:54:59.758Z,57.78
2018-06-05T23:57:28.134Z,57.50
2018-06-05T23:59:56.567Z,55.30
